createdAt,value
2023-03-23T15:58:43.252Z,99065.56
2023-03-23T16:01:17.376Z,99064.66
2023-03-23T16:03:53.679Z,99069.84
2023-03-23T16:06:25.143Z,99064.56
2023-03-23T16:08:55.497Z,99071.31
2023-03-23T16:11:26.393Z,99070.34
2023-03-23T16:13:55.268Z,99065.44
2023-03-23T16:16:33.830Z,99048.09
2023-03-23T16:19:01.647Z,99061.00
2023-03-23T16:21:29.166Z,99055.97
2023-03-23T16:23:57.408Z,99049.78
2023-03-23T16:26:25.556Z,99052.34
2023-03-23T16:28:57.396Z,99054.88
2023-03-23T16:31:30.506Z,99052.63
2023-03-23T16:33:58.068Z,99051.47
2023-03-23T16:36:25.602Z,99057.34
2023-03-23T16:38:54.793Z,99065.88
2023-03-23T16:41:22.642Z,99059.78
2023-03-23T16:43:50.358Z,99053.75
2023-03-23T16:46:18.281Z,99045.09
2023-03-23T16:48:45.808Z,99039.81
2023-03-23T16:51:13.278Z,99047.56
2023-03-23T16:53:40.988Z,99043.19
2023-03-23T16:56:08.914Z,99040.50
2023-03-23T16:58:36.578Z,99051.59
2023-03-23T17:01:04.283Z,99037.75
2023-03-23T17:03:31.936Z,99038.47
2023-03-23T17:06:01.721Z,99037.53
2023-03-23T17:08:29.572Z,99036.59
2023-03-23T17:10:59.207Z,99039.13
2023-03-23T17:13:28.447Z,99024.75
2023-03-23T17:15:57.443Z,99019.38
2023-03-23T17:18:25.567Z,99021.84
2023-03-23T17:20:54.143Z,99019.13
2023-03-23T17:23:22.210Z,99019.94
2023-03-23T17:25:50.522Z,99007.88
2023-03-23T17:28:19.685Z,99011.22
2023-03-23T17:30:48.632Z,99012.06
2023-03-23T17:33:16.307Z,99003.59
2023-03-23T17:35:46.999Z,99001.94
2023-03-23T17:38:15.009Z,98983.81
2023-03-23T17:40:42.556Z,98985.69
2023-03-23T17:43:10.269Z,98985.53
2023-03-23T17:45:37.955Z,98991.50
2023-03-23T17:48:08.158Z,98986.38
2023-03-23T17:50:36.642Z,98982.09
2023-03-23T17:53:04.860Z,98980.34
2023-03-23T17:55:32.578Z,98975.16
2023-03-23T17:58:00.352Z,98962.25
2023-03-23T18:00:27.909Z,98973.53
2023-03-23T18:02:56.589Z,98966.03
2023-03-23T18:05:24.737Z,98968.56
2023-03-23T18:07:52.349Z,98971.16
2023-03-23T18:10:20.567Z,98960.03
2023-03-23T18:12:50.896Z,98955.59
2023-03-23T18:15:18.495Z,98961.63
2023-03-23T18:17:48.380Z,98951.25
2023-03-23T18:20:18.407Z,98950.34
2023-03-23T18:22:45.970Z,98947.69
2023-03-23T18:25:13.982Z,98956.31
2023-03-23T18:27:41.885Z,98944.22
2023-03-23T18:30:10.740Z,98942.56
2023-03-23T18:32:40.129Z,98949.56
2023-03-23T18:35:10.865Z,98945.22
2023-03-23T18:37:43.077Z,98936.53
2023-03-23T18:40:11.542Z,98946.03
2023-03-23T18:42:41.633Z,98947.50
2023-03-23T18:45:09.725Z,98940.63
2023-03-23T18:47:38.742Z,98942.44
2023-03-23T18:50:11.126Z,98941.66
2023-03-23T18:52:40.561Z,98936.34
2023-03-23T18:55:09.387Z,98923.38
2023-03-23T18:57:40.295Z,98929.25
2023-03-23T19:00:08.895Z,98918.16
2023-03-23T19:02:39.566Z,98903.63
2023-03-23T19:05:09.321Z,98912.16
2023-03-23T19:07:38.416Z,98914.75
2023-03-23T19:10:06.389Z,98913.75
2023-03-23T19:12:33.821Z,98893.81
2023-03-23T19:15:01.430Z,98899.88
2023-03-23T19:17:30.497Z,98893.00
2023-03-23T19:19:58.328Z,98886.97
2023-03-23T19:22:25.996Z,98889.75
2023-03-23T19:24:53.563Z,98892.19
2023-03-23T19:27:21.435Z,98892.16
2023-03-23T19:29:49.482Z,98902.38
2023-03-23T19:32:17.208Z,98895.59
2023-03-23T19:34:49.311Z,98893.00
2023-03-23T19:37:18.841Z,98891.28
2023-03-23T19:39:46.358Z,98879.13
2023-03-23T19:42:16.937Z,98874.03
2023-03-23T19:44:44.844Z,98874.97
2023-03-23T19:47:12.980Z,98870.75
2023-03-23T19:49:40.992Z,98865.69
2023-03-23T19:52:12.530Z,98858.00
2023-03-23T19:54:41.659Z,98865.72
2023-03-23T19:57:10.606Z,98864.06
2023-03-23T19:59:39.048Z,98864.88
2023-03-23T20:02:07.180Z,98856.38
2023-03-23T20:04:35.441Z,98867.56
2023-03-23T20:07:05.923Z,98843.41
2023-03-23T20:09:35.319Z,98843.34
2023-03-23T20:12:04.819Z,98833.13
2023-03-23T20:14:33.389Z,98833.25
2023-03-23T20:17:01.750Z,98830.56
2023-03-23T20:19:29.238Z,98819.34
2023-03-23T20:21:56.704Z,98810.00
2023-03-23T20:24:24.219Z,98817.69
2023-03-23T20:26:51.778Z,98829.72
2023-03-23T20:29:19.267Z,98828.91
2023-03-23T20:31:46.896Z,98815.13
2023-03-23T20:34:30.606Z,98801.44
2023-03-23T20:36:59.917Z,98808.31
2023-03-23T20:39:30.984Z,98810.84
2023-03-23T20:42:03.459Z,98802.31
2023-03-23T20:44:34.882Z,98810.94
2023-03-23T20:47:03.956Z,98809.09
2023-03-23T20:49:32.089Z,98809.94
2023-03-23T20:51:59.999Z,98819.06
2023-03-23T20:54:28.064Z,98810.63
2023-03-23T20:56:57.762Z,98814.78
2023-03-23T20:59:25.828Z,98804.66
2023-03-23T21:01:53.997Z,98796.63
2023-03-23T21:04:27.340Z,98802.78
2023-03-23T21:06:55.985Z,98789.03
2023-03-23T21:09:25.417Z,98795.72
2023-03-23T21:11:53.834Z,98797.31
2023-03-23T21:14:21.591Z,98787.06
2023-03-23T21:16:50.672Z,98792.22
2023-03-23T21:19:19.913Z,98787.88
2023-03-23T21:21:55.805Z,98781.00
2023-03-23T21:24:28.499Z,98768.91
2023-03-23T21:26:58.914Z,98773.22
2023-03-23T21:29:28.068Z,98771.50
2023-03-23T21:34:27.919Z,98766.31
2023-03-23T21:36:55.574Z,98751.75
2023-03-23T21:39:23.696Z,98761.13
2023-03-23T21:41:51.152Z,98756.00
2023-03-23T21:44:18.836Z,98756.81
2023-03-23T21:46:46.382Z,98758.66
2023-03-23T21:49:14.501Z,98757.84
2023-03-23T21:51:43.142Z,98750.97
2023-03-23T21:54:11.803Z,98752.59
2023-03-23T21:56:40.303Z,98742.41
2023-03-23T21:59:07.952Z,98742.53
2023-03-23T22:01:37.851Z,98745.66
2023-03-23T22:04:09.039Z,98742.41
2023-03-23T22:06:37.319Z,98732.84
2023-03-23T22:09:05.554Z,98720.13
2023-03-23T22:11:34.116Z,98722.50
2023-03-23T22:14:01.961Z,98721.66
2023-03-23T22:16:29.980Z,98715.69
2023-03-23T22:19:00.213Z,98712.28
2023-03-23T22:21:28.935Z,98704.38
2023-03-23T22:23:58.413Z,98716.38
2023-03-23T22:26:27.835Z,98712.94
2023-03-23T22:28:56.359Z,98711.13
2023-03-23T22:31:27.761Z,98694.00
2023-03-23T22:33:56.987Z,98703.38
2023-03-23T22:36:26.362Z,98679.34
2023-03-23T22:38:55.708Z,98685.41
2023-03-23T22:41:29.195Z,98682.00
2023-03-23T22:43:56.770Z,98678.38
2023-03-23T22:46:25.297Z,98671.59
2023-03-23T22:48:53.332Z,98666.59
2023-03-23T22:51:21.630Z,98665.53
2023-03-23T22:53:50.012Z,98681.81
2023-03-23T22:56:19.063Z,98658.59
2023-03-23T22:58:46.830Z,98660.44
2023-03-23T23:01:21.925Z,98659.53
2023-03-23T23:03:50.138Z,98649.31
2023-03-23T23:06:18.975Z,98646.66
2023-03-23T23:08:47.417Z,98639.00
2023-03-23T23:11:17.483Z,98640.84
2023-03-23T23:13:45.831Z,98627.97
2023-03-23T23:16:17.375Z,98617.69
2023-03-23T23:18:47.627Z,98617.63
2023-03-23T23:21:18.324Z,98611.66
2023-03-23T23:23:46.648Z,98608.38
2023-03-23T23:26:16.167Z,98616.09
2023-03-23T23:28:44.614Z,98599.84
2023-03-23T23:31:29.949Z,98599.13
2023-03-23T23:33:59.613Z,98601.66
2023-03-23T23:36:30.453Z,98589.66
2023-03-23T23:39:00.339Z,98591.41
2023-03-23T23:41:30.907Z,98590.59
2023-03-23T23:43:59.601Z,98591.44
2023-03-23T23:46:28.888Z,98577.97
2023-03-23T23:48:57.593Z,98570.19
2023-03-23T23:51:27.580Z,98560.69
2023-03-23T23:53:59.190Z,98559.81
2023-03-23T23:56:27.320Z,98547.78
2023-03-23T23:58:54.964Z,98542.56
